N395T -KISP
Flight info
| Callsign | N395T |
|---|---|
| Flight time | N/A |
| Altitude | |
| Route | |
| Aircraft |
Departure
| Time | N/A |
|---|---|
| Airport | - |
Arrival
| Time | 2026-04-27 17:32 |
|---|---|
| Airport | Long Island MacArthur Airport (KISP) |
| Time | Latitude | Longitude | Altitude | Speed | Heading |
|---|---|---|---|---|---|
| 2026-04-27 17:27 | 40.79484 | -72.88264 | 3137 ft | 241 kts | 255° |
| 2026-04-27 17:27 | 40.79064 | -72.90383 | 2923 ft | 241 kts | 258° |
| 2026-04-27 17:27 | 40.78746 | -72.92542 | 2586 ft | 232 kts | 261° |
| 2026-04-27 17:28 | 40.78477 | -72.94581 | 2490 ft | 215 kts | 261° |
| 2026-04-27 17:28 | 40.78226 | -72.96495 | 2246 ft | 211 kts | 261° |
| 2026-04-27 17:28 | 40.77761 | -72.99956 | 1974 ft | 170 kts | 261° |
| 2026-04-27 17:29 | 40.77537 | -73.01498 | 1998 ft | 173 kts | 260° |
| 2026-04-27 17:29 | 40.77287 | -73.03057 | 1954 ft | 176 kts | 259° |
| 2026-04-27 17:29 | 40.77026 | -73.04638 | 1982 ft | 173 kts | 259° |
| 2026-04-27 17:29 | 40.76714 | -73.06146 | 1816 ft | 165 kts | 255° |
| 2026-04-27 17:30 | 40.76346 | -73.07489 | 1682 ft | 143 kts | 250° |
| 2026-04-27 17:30 | 40.75775 | -73.09741 | 1160 ft | 127 kts | 285° |
| 2026-04-27 17:30 | 40.76142 | -73.10753 | 1043 ft | 122 kts | 309° |
| 2026-04-27 17:31 | 40.76585 | -73.11623 | 936 ft | 108 kts | 313° |
| 2026-04-27 17:31 | 40.77089 | -73.12304 | 801 ft | 100 kts | 334° |
| 2026-04-27 17:31 | 40.77696 | -73.12501 | 622 ft | 87 kts | 18° |
| 2026-04-27 17:31 | 40.78180 | -73.12147 | 346 ft | 81 kts | 43° |
| 2026-04-27 17:32 | 40.78563 | -73.11641 | 190 ft | 74 kts | 44° |
| 2026-04-27 17:32 | 40.79151 | -73.10869 | 94 ft | 30 kts | 45° |
| 2026-04-27 17:32 | 40.79256 | -73.10734 | 95 ft | 17 kts | 34° |
| 2026-04-27 17:33 | 40.79375 | -73.10720 | 93 ft | 19 kts | 358° |
| 2026-04-27 17:33 | 40.79471 | -73.10720 | 92 ft | 14 kts | 360° |
| 2026-04-27 17:33 | 40.79574 | -73.10720 | 93 ft | 15 kts | 0° |
| 2026-04-27 17:33 | 40.79684 | -73.10721 | 91 ft | 17 kts | 359° |
| 2026-04-27 17:34 | 40.79788 | -73.10722 | 91 ft | 8 kts | 342° |
| 2026-04-27 17:34 | 40.79803 | -73.10808 | 91 ft | 13 kts | 269° |
| 2026-04-27 17:34 | 40.79804 | -73.10910 | 91 ft | 8 kts | 284° |
| 2026-04-27 17:34 | 40.79826 | -73.10912 | 91 ft | 4 kts | 81° |
| 2026-04-27 17:35 | 40.79825 | -73.10897 | 91 ft | 0 kts | 89° |